Assateague Island Natl Seashore, Maryland
Current Conditions -  °F | °C
As of 6:53 PM on Monday 22 Dec 2014 (Local Time) from KOXB Reporting Station
Overcast Overcast  
Wind Chill:   Ceiling: 9000
Heat Index:   Visibility: 10mi
Dew Point:   Wind: 8mph
Humidity: 89%   Direction: 50°NE
Pressure: 30.1"   Gusts: NA
Location:  38.12°N, 75.19°W
Report Text: KOXB 222353Z AUTO 05007KT 10SM FEW031 SCT060 OVC090 09/07 A3010 RMK AO2 SLP194 60002 T00890072 10089 20067 55005 TSNO
Loading
Personal Weather Stations






























Interactive Weather Map New forecast layout! Learn more

10-Day Weather Forecast

Advertisements
Track Severe Weather on mobile